Time;durP1;ratioP1;P1;durP2;ratioP2;P2;SDS_P1;SDS_P2;PMS_P1;PMS_P2;Temp;Humidity;BMP_temperature;BMP_pressure;BME280_temperature;BME280_humidity;BME280_pressure;Samples;Min_cycle;Max_cycle;Signal;HPM_P1;HPM_P2
2023/07/25 00:01:15;;;;;;;5.43;2.28;;;;;;;12.69;93.57;100594.19;5049639;28;20501;-68
2023/07/25 00:03:40;;;;;;;6.07;2.30;;;;;;;12.67;93.09;100588.00;5068061;28;20034;-68
2023/07/25 00:06:05;;;;;;;6.47;2.10;;;;;;;12.64;93.22;100594.59;5066253;28;20124;-68
2023/07/25 00:08:32;;;;;;;5.72;2.65;;;;;;;12.58;93.95;100594.22;5068020;28;20441;-68
2023/07/25 00:10:57;;;;;;;10.43;2.28;;;;;;;12.56;93.35;100598.97;5066445;28;20479;-70
2023/07/25 00:13:23;;;;;;;7.63;2.97;;;;;;;12.51;93.76;100592.03;5067751;28;20568;-69
2023/07/25 00:15:51;;;;;;;3.38;2.38;;;;;;;12.51;93.62;100592.03;5066980;28;20020;-68
2023/07/25 00:18:17;;;;;;;4.55;2.65;;;;;;;12.49;93.54;100590.41;5066118;28;20124;-68
2023/07/25 00:20:42;;;;;;;6.28;3.40;;;;;;;12.45;93.80;100600.75;5066577;28;20139;-69
2023/07/25 00:23:08;;;;;;;7.18;3.53;;;;;;;12.44;93.80;100589.94;5067024;28;20047;-68
2023/07/25 00:25:33;;;;;;;5.95;3.35;;;;;;;12.41;94.27;100584.75;5066867;28;20131;-70
2023/07/25 00:27:59;;;;;;;6.35;3.50;;;;;;;12.41;93.77;100593.81;5068019;28;20036;-69
2023/07/25 00:30:25;;;;;;;5.53;3.38;;;;;;;12.39;94.47;100589.47;5066747;28;20185;-67
2023/07/25 00:32:50;;;;;;;7.35;3.20;;;;;;;12.35;94.04;100579.81;5067181;28;20025;-68
2023/07/25 00:35:15;;;;;;;6.55;2.97;;;;;;;12.36;94.04;100581.56;5066482;28;20089;-69
2023/07/25 00:37:41;;;;;;;5.18;2.97;;;;;;;12.32;94.09;100586.41;5066225;28;20119;-68
2023/07/25 00:40:07;;;;;;;5.75;2.95;;;;;;;12.30;94.58;100582.91;5065394;28;20044;-69
2023/07/25 00:42:32;;;;;;;7.68;3.00;;;;;;;12.29;94.52;100583.06;5049631;28;20039;-69
2023/07/25 00:44:58;;;;;;;5.35;3.03;;;;;;;12.28;94.46;100584.06;5060407;28;20395;-69
2023/07/25 00:47:23;;;;;;;7.10;2.92;;;;;;;12.28;94.01;100584.06;5066593;28;20516;-68
2023/07/25 00:49:50;;;;;;;8.43;3.58;;;;;;;12.27;94.57;100593.25;5047995;28;20077;-68
2023/07/25 00:52:16;;;;;;;3.40;2.72;;;;;;;12.27;94.56;100591.38;5066615;28;20032;-69
2023/07/25 00:54:49;;;;;;;5.68;3.53;;;;;;;12.26;94.83;100592.34;5066857;28;20127;-67
2023/07/25 00:57:19;;;;;;;4.45;3.22;;;;;;;12.25;94.64;100587.91;5066636;28;20512;-69
2023/07/25 00:59:45;;;;;;;4.30;3.22;;;;;;;12.24;94.40;100588.91;5049948;28;20032;-68
2023/07/25 01:02:12;;;;;;;6.53;3.55;;;;;;;12.23;94.43;100588.03;5071022;28;20495;-69
2023/07/25 01:04:38;;;;;;;7.22;3.42;;;;;;;12.23;94.18;100587.16;5069917;28;20025;-68
2023/07/25 01:07:07;;;;;;;7.15;3.67;;;;;;;12.21;94.42;100584.56;5070312;28;20065;-69
2023/07/25 01:09:46;;;;;;;5.90;3.17;;;;;;;12.19;94.32;100583.81;5069210;28;20040;-69
2023/07/25 01:12:12;;;;;;;5.88;3.53;;;;;;;12.14;94.80;100577.91;5052803;28;20041;-69
2023/07/25 01:14:39;;;;;;;6.38;2.97;;;;;;;12.11;95.07;100578.13;5051880;28;20127;-68
2023/07/25 01:17:17;;;;;;;5.40;3.40;;;;;;;12.09;94.60;100580.13;5052546;28;20044;-68
2023/07/25 01:19:44;;;;;;;7.88;3.08;;;;;;;12.03;94.69;100586.09;5069616;28;20032;-68
2023/07/25 01:22:10;;;;;;;5.63;3.05;;;;;;;12.02;94.73;100586.22;5070369;28;20020;-68
2023/07/25 01:24:40;;;;;;;5.47;3.33;;;;;;;11.95;95.05;100585.88;5070199;28;20040;-69
2023/07/25 01:27:06;;;;;;;4.78;3.70;;;;;;;11.94;95.09;100587.72;5070547;28;20075;-68
2023/07/25 01:29:31;;;;;;;6.30;3.50;;;;;;;11.91;94.78;100584.38;5070740;28;20059;-68
2023/07/25 01:31:56;;;;;;;5.45;3.42;;;;;;;11.88;94.84;100585.50;5068334;28;20063;-69
2023/07/25 01:34:22;;;;;;;4.72;3.30;;;;;;;11.86;95.23;100582.03;5070318;28;20029;-68
2023/07/25 01:36:47;;;;;;;6.47;3.13;;;;;;;11.83;95.04;100578.69;5068832;28;20017;-69
2023/07/25 01:39:13;;;;;;;6.32;3.40;;;;;;;11.80;94.87;100571.63;5070223;28;20049;-69
2023/07/25 01:41:40;;;;;;;7.00;3.38;;;;;;;11.74;95.10;100566.63;5070488;28;20029;-68
2023/07/25 01:44:05;;;;;;;8.00;3.42;;;;;;;11.74;94.94;100570.22;5069527;28;20140;-70
2023/07/25 01:46:31;;;;;;;8.43;4.22;;;;;;;11.68;94.86;100561.69;5069375;28;20511;-69
2023/07/25 01:48:56;;;;;;;5.72;3.75;;;;;;;11.70;95.30;100570.59;5069966;28;20087;-68
2023/07/25 01:51:21;;;;;;;6.72;3.75;;;;;;;11.67;94.92;100574.47;5068869;28;20039;-69
2023/07/25 01:53:47;;;;;;;9.00;3.50;;;;;;;11.66;94.74;100563.69;5068831;28;20381;-67
2023/07/25 01:56:12;;;;;;;4.70;3.78;;;;;;;11.63;95.40;100563.94;5069365;28;20040;-67
2023/07/25 01:58:37;;;;;;;5.00;3.45;;;;;;;11.61;95.13;100563.19;5068831;28;20368;-68
2023/07/25 02:01:03;;;;;;;7.68;3.85;;;;;;;11.58;95.29;100561.59;5051918;28;20037;-69
2023/07/25 02:03:32;;;;;;;8.05;4.20;;;;;;;11.57;95.44;100559.88;5065192;28;20044;-68
2023/07/25 02:05:57;;;;;;;8.85;3.65;;;;;;;11.55;94.86;100561.81;5062617;28;20056;-69
2023/07/25 02:08:22;;;;;;;5.78;3.55;;;;;;;11.54;95.24;100556.50;5069545;28;20124;-69
2023/07/25 02:10:48;;;;;;;4.20;3.30;;;;;;;11.50;94.68;100556.75;5068721;28;20036;-68
2023/07/25 02:13:13;;;;;;;6.47;3.40;;;;;;;11.48;95.09;100550.56;5069283;28;20119;-67
2023/07/25 02:15:38;;;;;;;6.55;3.58;;;;;;;11.44;95.38;100551.81;5069444;28;20039;-68
2023/07/25 02:18:04;;;;;;;17.15;4.35;;;;;;;11.43;95.09;100552.81;5068271;28;20067;-69
2023/07/25 02:20:31;;;;;;;10.10;4.20;;;;;;;11.42;95.77;100558.34;5051382;28;20365;-67
2023/07/25 02:22:57;;;;;;;5.22;3.58;;;;;;;11.39;94.89;100556.75;5051029;28;20034;-67
2023/07/25 02:25:22;;;;;;;5.50;3.92;;;;;;;11.37;95.13;100553.28;5050904;28;20024;-67
2023/07/25 02:27:47;;;;;;;5.43;3.88;;;;;;;11.35;95.19;100558.00;5051569;28;20396;-68
2023/07/25 02:30:13;;;;;;;5.35;4.13;;;;;;;11.33;95.42;100551.81;5069110;28;20032;-68
2023/07/25 02:32:38;;;;;;;5.53;4.07;;;;;;;11.32;95.24;100547.34;5069409;28;20040;-67
2023/07/25 02:35:04;;;;;;;9.88;4.25;;;;;;;11.30;95.19;100548.47;5064433;28;20599;-70
2023/07/25 02:37:30;;;;;;;5.30;3.97;;;;;;;11.27;95.22;100540.53;5069451;28;20044;-67
2023/07/25 02:39:55;;;;;;;7.47;3.65;;;;;;;11.23;95.10;100545.34;5069076;28;20115;-67
2023/07/25 02:42:20;;;;;;;6.80;3.70;;;;;;;11.23;95.83;100543.50;5067219;28;20017;-68
2023/07/25 02:44:46;;;;;;;6.60;3.85;;;;;;;11.20;95.67;100541.03;5068560;28;20063;-68
2023/07/25 02:47:11;;;;;;;7.43;3.50;;;;;;;11.19;95.39;100552.03;5068809;28;20036;-67
2023/07/25 02:49:36;;;;;;;6.00;4.00;;;;;;;11.18;94.93;100550.31;5068223;28;20051;-67
2023/07/25 02:52:02;;;;;;;8.77;4.03;;;;;;;11.15;95.48;100551.44;5050948;28;20040;-68
2023/07/25 02:54:27;;;;;;;6.22;3.60;;;;;;;11.13;95.47;100549.81;5050678;28;20033;-68
2023/07/25 02:56:53;;;;;;;4.88;3.78;;;;;;;11.11;95.35;100557.25;5050944;28;20449;-68
2023/07/25 02:59:19;;;;;;;5.82;4.05;;;;;;;11.10;96.31;100556.38;5068440;28;20052;-68
2023/07/25 03:01:44;;;;;;;5.75;3.67;;;;;;;11.07;96.18;100553.88;5034410;28;20040;-68
2023/07/25 03:04:10;;;;;;;5.15;3.50;;;;;;;11.05;96.44;100552.25;5050614;28;20029;-67
2023/07/25 03:06:35;;;;;;;4.93;3.50;;;;;;;11.04;96.59;100556.84;5066989;28;20530;-67
2023/07/25 03:09:00;;;;;;;7.97;3.97;;;;;;;11.05;96.13;100554.97;5068046;28;20056;-67
2023/07/25 03:11:26;;;;;;;6.80;3.67;;;;;;;11.06;96.42;100549.44;5068163;28;20443;-68
2023/07/25 03:13:51;;;;;;;5.93;4.15;;;;;;;11.07;96.39;100553.88;5067204;28;20029;-67
2023/07/25 03:16:17;;;;;;;4.95;3.80;;;;;;;11.09;96.79;100553.75;5067052;28;20127;-67
2023/07/25 03:18:42;;;;;;;9.77;4.07;;;;;;;11.11;97.14;100557.25;5068737;28;20529;-68
2023/07/25 03:21:07;;;;;;;6.63;3.50;;;;;;;11.13;96.73;100555.25;5066760;28;20063;-67
2023/07/25 03:23:33;;;;;;;7.72;4.20;;;;;;;11.15;97.15;100556.88;5067790;28;20056;-67
2023/07/25 03:25:58;;;;;;;6.53;3.85;;;;;;;11.17;97.45;100545.84;5067786;28;20037;-67
2023/07/25 03:28:24;;;;;;;9.32;3.97;;;;;;;11.18;97.57;100550.31;5067944;28;20040;-67
2023/07/25 03:30:49;;;;;;;9.38;4.65;;;;;;;11.19;97.41;100541.13;5067491;28;20046;-67
2023/07/25 03:33:14;;;;;;;6.18;4.57;;;;;;;11.20;97.47;100541.03;5067834;28;20142;-67
2023/07/25 03:35:41;;;;;;;7.50;4.63;;;;;;;11.23;98.36;100543.50;5049148;28;20024;-67
2023/07/25 03:38:06;;;;;;;7.50;4.10;;;;;;;11.26;98.06;100538.81;5067229;28;20072;-68
2023/07/25 03:40:32;;;;;;;7.50;4.40;;;;;;;11.30;98.69;100538.44;5068348;28;20063;-67
2023/07/25 03:42:57;;;;;;;6.85;4.25;;;;;;;11.31;99.07;100537.44;5068046;28;20042;-68
2023/07/25 03:45:22;;;;;;;8.20;4.30;;;;;;;11.33;98.75;100542.75;5067460;28;20032;-68
2023/07/25 03:47:48;;;;;;;5.50;3.88;;;;;;;11.35;98.73;100536.22;5067484;28;20519;-68
2023/07/25 03:50:13;;;;;;;5.90;4.00;;;;;;;11.40;99.17;100544.00;5066682;28;20467;-68
2023/07/25 03:52:39;;;;;;;7.93;4.55;;;;;;;11.43;99.22;100541.91;5067717;28;20021;-68
2023/07/25 03:55:05;;;;;;;9.82;3.97;;;;;;;11.47;nan;100548.84;5065364;28;20052;-68
2023/07/25 03:57:31;;;;;;;8.63;4.82;;;;;;;11.46;98.72;100538.91;5050726;28;20025;-67
2023/07/25 03:59:56;;;;;;;9.43;4.60;;;;;;;11.49;98.60;100532.38;5055347;28;20090;-68
2023/07/25 04:02:21;;;;;;;6.72;4.50;;;;;;;11.51;98.56;100538.53;5067525;28;20037;-69
2023/07/25 04:04:47;;;;;;;7.20;4.57;;;;;;;11.53;98.53;100544.75;5064599;28;20148;-68
2023/07/25 04:07:12;;;;;;;8.50;4.35;;;;;;;11.54;98.75;100549.19;5065805;28;20361;-67
2023/07/25 04:09:37;;;;;;;8.82;4.25;;;;;;;11.55;99.51;100547.34;5049105;28;20043;-67
2023/07/25 04:12:03;;;;;;;9.00;4.65;;;;;;;11.55;99.58;100550.06;5068120;28;20069;-68
2023/07/25 04:14:29;;;;;;;6.95;4.10;;;;;;;11.55;99.32;100545.47;5063614;28;20032;-68
2023/07/25 04:16:54;;;;;;;7.53;4.18;;;;;;;11.56;98.87;100541.75;5067394;28;20462;-67
2023/07/25 04:19:19;;;;;;;6.28;3.88;;;;;;;11.56;99.26;100549.94;5066760;28;20021;-68
2023/07/25 04:21:45;;;;;;;9.52;4.38;;;;;;;11.56;98.64;100547.19;5048253;28;20036;-67
2023/07/25 04:24:10;;;;;;;8.80;4.03;;;;;;;11.56;99.25;100543.63;5066998;28;20055;-67
2023/07/25 04:26:35;;;;;;;5.82;4.47;;;;;;;11.55;99.04;100556.38;5067095;28;20033;-68
2023/07/25 04:29:01;;;;;;;6.30;4.35;;;;;;;11.54;98.38;100543.75;5065848;28;20032;-68
2023/07/25 04:31:26;;;;;;;9.65;4.60;;;;;;;11.55;98.54;100548.19;5065657;28;20450;-67
2023/07/25 04:33:51;;;;;;;6.10;4.03;;;;;;;11.57;98.68;100550.81;5066540;28;20491;-68
2023/07/25 04:36:17;;;;;;;7.78;4.60;;;;;;;11.60;98.87;100550.56;5065686;28;20097;-67
2023/07/25 04:38:42;;;;;;;9.85;4.60;;;;;;;11.62;98.43;100549.44;5067260;28;20491;-68
2023/07/25 04:41:07;;;;;;;6.43;3.95;;;;;;;11.63;98.11;100553.91;5065236;28;20468;-69
2023/07/25 04:43:33;;;;;;;10.27;5.68;;;;;;;11.62;98.64;100559.50;5067311;28;20432;-67
2023/07/25 04:45:58;;;;;;;10.95;4.38;;;;;;;11.59;98.31;100563.31;5062228;28;20356;-67
2023/07/25 04:48:24;;;;;;;5.63;3.67;;;;;;;11.62;98.34;100562.22;5067252;28;20041;-68
2023/07/25 04:50:49;;;;;;;7.72;4.50;;;;;;;11.65;98.43;100560.09;5065895;28;20191;-68
2023/07/25 04:53:14;;;;;;;7.82;5.68;;;;;;;11.70;98.39;100559.72;5064867;28;20021;-67
2023/07/25 04:55:40;;;;;;;9.30;5.63;;;;;;;11.78;98.24;100559.94;5065219;28;20436;-68
2023/07/25 04:58:05;;;;;;;9.15;4.80;;;;;;;11.83;98.23;100551.44;5066858;28;20020;-67
2023/07/25 05:00:30;;;;;;;10.35;4.80;;;;;;;11.90;97.90;100556.25;5067021;28;20041;-67
2023/07/25 05:02:56;;;;;;;9.20;5.68;;;;;;;11.98;98.35;100545.59;5065383;28;20073;-68
2023/07/25 05:05:21;;;;;;;13.15;5.90;;;;;;;12.08;98.78;100544.84;5048179;28;20182;-68
2023/07/25 05:07:46;;;;;;;7.28;5.43;;;;;;;12.16;98.79;100545.88;5066187;28;20059;-67
2023/07/25 05:10:12;;;;;;;7.53;5.72;;;;;;;12.29;98.34;100548.47;5065375;28;20052;-67
2023/07/25 05:12:37;;;;;;;9.13;5.68;;;;;;;12.41;98.71;100546.56;5048477;28;20056;-68
2023/07/25 05:15:03;;;;;;;10.90;6.60;;;;;;;12.51;99.25;100548.38;5048777;28;20040;-68
2023/07/25 05:17:29;;;;;;;14.52;6.90;;;;;;;12.56;97.47;100553.44;5066952;28;20040;-67
2023/07/25 05:19:54;;;;;;;11.25;6.18;;;;;;;12.67;97.92;100553.38;5065828;28;20023;-68
2023/07/25 05:22:19;;;;;;;12.50;6.93;;;;;;;12.79;99.75;100550.59;5066423;28;20029;-68
2023/07/25 05:24:45;;;;;;;11.25;6.85;;;;;;;12.84;98.30;100559.25;5066337;28;20059;-68
2023/07/25 05:27:10;;;;;;;10.27;6.30;;;;;;;12.91;97.69;100561.31;5058724;28;20079;-69
2023/07/25 05:29:35;;;;;;;11.93;6.60;;;;;;;12.97;98.16;100552.59;5059117;28;20071;-69
2023/07/25 05:32:01;;;;;;;12.60;6.28;;;;;;;13.08;97.58;100557.09;5066763;28;20040;-68
2023/07/25 05:34:26;;;;;;;10.23;6.72;;;;;;;13.14;96.66;100553.84;5066340;28;20059;-68
2023/07/25 05:36:51;;;;;;;10.25;6.28;;;;;;;13.24;96.76;100564.84;5064690;28;20549;-67
2023/07/25 05:39:17;;;;;;;10.90;6.07;;;;;;;13.32;96.00;100564.19;5064753;28;20527;-68
2023/07/25 05:41:42;;;;;;;10.02;5.40;;;;;;;13.40;96.12;100556.19;5065575;28;20369;-67
2023/07/25 05:44:08;;;;;;;11.93;5.68;;;;;;;13.46;97.07;100566.53;5063340;28;20394;-68
2023/07/25 05:46:34;;;;;;;11.68;5.97;;;;;;;13.53;96.68;100565.88;5066398;28;20048;-69
2023/07/25 05:48:59;;;;;;;10.00;6.18;;;;;;;13.64;95.82;100573.09;5070213;28;20029;-68
2023/07/25 05:51:24;;;;;;;12.23;5.55;;;;;;;13.74;95.13;100574.00;5068635;28;20043;-67
2023/07/25 05:53:50;;;;;;;12.68;5.53;;;;;;;13.79;93.99;100576.31;5069855;28;20032;-67
2023/07/25 05:56:15;;;;;;;12.77;5.68;;;;;;;13.90;94.66;100578.97;5062334;28;20037;-68
2023/07/25 05:58:41;;;;;;;10.13;6.18;;;;;;;13.99;95.26;100575.41;5058288;28;20136;-67
2023/07/25 06:01:06;;;;;;;10.52;6.15;;;;;;;14.07;94.18;100569.22;5051068;28;20119;-68
2023/07/25 06:03:32;;;;;;;10.25;5.90;;;;;;;14.13;93.28;100574.13;5070366;28;20028;-68
2023/07/25 06:05:57;;;;;;;8.23;5.15;;;;;;;14.18;93.85;100568.25;5068645;28;20090;-68
2023/07/25 06:08:22;;;;;;;10.60;5.65;;;;;;;14.23;94.11;100575.00;5064285;28;20037;-68
2023/07/25 06:10:48;;;;;;;10.00;5.53;;;;;;;14.26;94.09;100573.84;5063349;28;20529;-68
2023/07/25 06:13:13;;;;;;;14.57;5.40;;;;;;;14.30;92.98;100570.69;5069829;28;20471;-68
2023/07/25 06:15:39;;;;;;;12.05;5.25;;;;;;;14.38;92.65;100570.00;5069305;28;20102;-68
2023/07/25 06:18:04;;;;;;;12.18;5.85;;;;;;;14.43;92.67;100569.56;5069454;28;20488;-68
2023/07/25 06:20:32;;;;;;;11.57;5.53;;;;;;;14.50;93.31;100570.75;5069141;28;20035;-67
2023/07/25 06:22:59;;;;;;;14.02;5.20;;;;;;;14.58;92.98;100567.28;5068235;28;20037;-68
2023/07/25 06:25:24;;;;;;;8.38;4.70;;;;;;;14.67;92.90;100569.16;5062434;28;20503;-67
2023/07/25 06:27:49;;;;;;;5.97;3.55;;;;;;;14.69;90.90;100564.44;5069557;28;20078;-68
2023/07/25 06:30:15;;;;;;;7.88;3.38;;;;;;;14.71;90.26;100573.34;5050961;28;20093;-66
2023/07/25 06:32:41;;;;;;;4.07;2.70;;;;;;;14.71;89.90;100581.56;5069126;28;20040;-67
2023/07/25 06:35:07;;;;;;;9.02;3.55;;;;;;;14.76;91.91;100582.84;5067630;28;20086;-67
2023/07/25 06:37:33;;;;;;;7.95;3.13;;;;;;;14.78;90.90;100589.06;5069366;28;20040;-67
2023/07/25 06:40:00;;;;;;;13.90;3.05;;;;;;;14.78;89.96;100593.66;5069137;28;20493;-68
2023/07/25 06:42:28;;;;;;;10.13;3.30;;;;;;;14.82;90.92;100586.03;5069588;28;20067;-68
2023/07/25 06:44:54;;;;;;;8.30;3.05;;;;;;;14.83;90.50;100594.13;5056159;28;20050;-67
2023/07/25 06:47:20;;;;;;;5.75;2.53;;;;;;;14.81;89.97;100593.38;5051168;28;20559;-67
2023/07/25 06:49:45;;;;;;;10.02;2.92;;;;;;;14.87;91.10;100594.66;5067880;28;20043;-67
2023/07/25 06:52:11;;;;;;;7.50;3.10;;;;;;;15.00;91.50;100587.00;5067028;28;20446;-68
2023/07/25 06:54:37;;;;;;;6.78;3.15;;;;;;;15.17;90.57;100582.69;5068197;28;20039;-68
2023/07/25 06:57:03;;;;;;;7.53;2.72;;;;;;;15.39;90.67;100584.19;5069446;28;20498;-68
2023/07/25 06:59:29;;;;;;;8.40;2.70;;;;;;;15.50;87.02;100578.53;5068526;28;20036;-69
2023/07/25 07:01:55;;;;;;;8.88;2.75;;;;;;;15.75;90.21;100579.75;5068901;28;20471;-67
2023/07/25 07:04:21;;;;;;;10.93;3.45;;;;;;;15.96;89.82;100587.78;5069311;28;20067;-67
2023/07/25 07:06:46;;;;;;;8.85;2.90;;;;;;;15.95;87.19;100581.41;5067180;28;20074;-67
2023/07/25 07:09:11;;;;;;;9.13;2.50;;;;;;;15.97;88.78;100584.84;5068937;28;20040;-69
2023/07/25 07:11:37;;;;;;;7.15;2.30;;;;;;;15.92;83.68;100589.09;5050713;28;20048;-67
2023/07/25 07:14:02;;;;;;;6.65;2.47;;;;;;;15.89;85.55;100595.72;5068521;28;20033;-67
2023/07/25 07:16:28;;;;;;;5.28;2.53;;;;;;;16.07;86.69;100604.00;5068398;28;20040;-67
2023/07/25 07:18:53;;;;;;;7.88;2.40;;;;;;;16.26;83.19;100597.56;5068933;28;20024;-66
2023/07/25 07:21:18;;;;;;;9.15;2.47;;;;;;;16.32;80.31;100596.94;5067219;28;20048;-67
2023/07/25 07:23:44;;;;;;;5.03;1.85;;;;;;;16.44;81.69;100600.31;5068964;28;20394;-68
2023/07/25 07:26:09;;;;;;;8.05;2.70;;;;;;;16.59;77.99;100604.25;5067778;28;20044;-69
2023/07/25 07:28:34;;;;;;;9.77;2.17;;;;;;;16.62;77.41;100606.69;5068616;28;20100;-68
2023/07/25 07:31:00;;;;;;;4.18;2.03;;;;;;;16.53;76.99;100602.16;5068290;28;20064;-68
2023/07/25 07:33:26;;;;;;;6.40;1.80;;;;;;;16.48;78.82;100602.59;5068338;28;20106;-69
2023/07/25 07:35:51;;;;;;;9.27;2.25;;;;;;;16.41;77.80;100604.22;5049495;28;20040;-69
2023/07/25 07:38:16;;;;;;;7.30;1.90;;;;;;;16.43;78.48;100598.59;5067791;28;20040;-68
2023/07/25 07:40:42;;;;;;;12.63;2.92;;;;;;;16.32;77.18;100606.06;5067868;28;20543;-67
2023/07/25 07:43:07;;;;;;;6.57;2.17;;;;;;;16.13;76.51;100616.25;5068130;28;20019;-67
2023/07/25 07:45:33;;;;;;;8.18;2.10;;;;;;;15.96;77.70;100620.69;5068044;28;20076;-67
2023/07/25 07:47:58;;;;;;;8.80;2.10;;;;;;;15.93;80.95;100612.75;5067650;28;20422;-67
2023/07/25 07:50:24;;;;;;;9.15;1.85;;;;;;;15.94;80.90;100623.56;5067246;28;20478;-67
2023/07/25 07:52:49;;;;;;;4.40;1.60;;;;;;;15.95;77.66;100617.09;5067423;28;20032;-67
2023/07/25 07:55:15;;;;;;;5.85;1.35;;;;;;;15.89;76.77;100627.78;5067369;28;20036;-68
2023/07/25 07:57:43;;;;;;;6.60;1.65;;;;;;;15.81;77.39;100626.69;5067622;28;20033;-69
2023/07/25 08:00:10;;;;;;;2.65;1.45;;;;;;;15.76;75.27;100648.22;5067223;28;20040;-68
2023/07/25 08:02:40;;;;;;;3.28;1.40;;;;;;;15.72;78.10;100634.94;5067697;28;20123;-68
2023/07/25 08:05:06;;;;;;;4.30;1.30;;;;;;;15.78;74.93;100637.06;5066857;28;20066;-67
2023/07/25 08:07:31;;;;;;;3.63;1.42;;;;;;;15.76;75.69;100637.25;5067710;28;20044;-69
2023/07/25 08:09:57;;;;;;;6.85;1.90;;;;;;;15.76;76.33;100639.97;5048989;28;20051;-69
2023/07/25 08:12:23;;;;;;;7.80;1.30;;;;;;;15.85;77.93;100645.56;5067746;28;20086;-67
2023/07/25 08:14:48;;;;;;;5.20;1.50;;;;;;;15.89;74.90;100645.09;5066712;28;20093;-67
2023/07/25 08:17:15;;;;;;;4.93;1.42;;;;;;;15.99;72.25;100651.44;5049362;28;20555;-67
2023/07/25 08:19:41;;;;;;;8.18;1.58;;;;;;;16.05;72.99;100645.34;5066350;28;20426;-67
2023/07/25 08:22:06;;;;;;;7.82;1.65;;;;;;;16.10;71.58;100646.78;5067255;28;20039;-67
2023/07/25 08:24:34;;;;;;;4.50;1.30;;;;;;;16.15;72.86;100645.28;5067512;28;20040;-67
2023/07/25 08:27:00;;;;;;;4.05;1.17;;;;;;;16.18;69.60;100642.25;5068263;28;20230;-68
2023/07/25 08:29:25;;;;;;;5.72;2.05;;;;;;;16.26;71.47;100647.81;5067286;28;20519;-66
2023/07/25 08:31:51;;;;;;;2.60;1.13;;;;;;;16.41;71.36;100641.81;5067047;28;20041;-68
2023/07/25 08:34:16;;;;;;;7.32;1.40;;;;;;;16.59;71.49;100639.97;5067410;28;20044;-68
2023/07/25 08:36:42;;;;;;;3.85;1.20;;;;;;;16.53;70.28;100649.69;5066047;28;20434;-67
2023/07/25 08:39:07;;;;;;;7.60;1.23;;;;;;;16.55;70.31;100642.19;5067375;28;20119;-68
2023/07/25 08:41:35;;;;;;;5.20;1.10;;;;;;;16.73;69.80;100652.34;5067003;28;20036;-68
2023/07/25 08:44:02;;;;;;;7.30;1.25;;;;;;;16.77;69.56;100649.13;5067325;28;20383;-68
2023/07/25 08:46:28;;;;;;;6.50;1.60;;;;;;;16.95;70.92;100659.25;5067107;28;20480;-68
2023/07/25 08:49:00;;;;;;;5.68;1.45;;;;;;;17.07;68.96;100650.63;5067517;28;21239;-67
2023/07/25 08:51:27;;;;;;;10.00;1.75;;;;;;;17.38;71.93;100652.06;5065386;28;20059;-67
2023/07/25 08:54:01;;;;;;;6.63;1.30;;;;;;;17.80;73.89;100655.84;5067308;28;20033;-69
2023/07/25 08:56:27;;;;;;;8.90;1.70;;;;;;;17.98;69.62;100666.78;5066877;28;20044;-69
2023/07/25 08:58:54;;;;;;;5.28;1.23;;;;;;;18.09;69.86;100663.75;5066786;28;20048;-67
2023/07/25 09:01:21;;;;;;;8.23;1.98;;;;;;;18.37;70.97;100663.50;5066514;28;20031;-69
2023/07/25 09:03:47;;;;;;;3.47;1.38;;;;;;;18.47;65.61;100657.91;5067327;28;20349;-69
2023/07/25 09:06:13;;;;;;;4.43;1.50;;;;;;;18.22;64.08;100666.03;5065153;28;20048;-67
2023/07/25 09:08:39;;;;;;;4.10;1.27;;;;;;;18.29;68.86;100667.13;5066730;28;20059;-69
2023/07/25 09:11:06;;;;;;;6.05;1.73;;;;;;;18.51;68.07;100665.66;5065958;28;20673;-68
2023/07/25 09:13:32;;;;;;;6.63;1.40;;;;;;;18.64;69.78;100658.78;5067682;28;20085;-69
2023/07/25 09:15:57;;;;;;;9.85;1.60;;;;;;;19.10;66.79;100665.63;5048532;28;20516;-69
2023/07/25 09:18:23;;;;;;;6.18;1.20;;;;;;;19.52;64.59;100672.88;5067146;28;20604;-68
2023/07/25 09:20:49;;;;;;;5.75;1.30;;;;;;;19.69;58.69;100668.25;5067839;28;20173;-68
2023/07/25 09:23:21;;;;;;;6.53;1.17;;;;;;;20.00;61.93;100677.47;5070569;28;20151;-68
2023/07/25 09:25:47;;;;;;;4.93;1.70;;;;;;;20.67;66.61;100671.56;5070442;28;20535;-68
2023/07/25 09:28:13;;;;;;;5.20;1.40;;;;;;;20.95;64.31;100668.28;5070581;28;20476;-69
2023/07/25 09:30:46;;;;;;;2.72;1.10;;;;;;;21.14;56.01;100660.34;5052471;28;20037;-68
2023/07/25 09:33:25;;;;;;;4.20;0.90;;;;;;;21.07;56.61;100659.34;5070698;28;20044;-68
2023/07/25 09:35:50;;;;;;;5.53;1.30;;;;;;;20.89;55.07;100661.59;5070047;28;20484;-69
2023/07/25 09:38:16;;;;;;;3.08;1.00;;;;;;;20.91;59.01;100659.47;5070118;28;20028;-69
2023/07/25 09:40:41;;;;;;;3.22;1.20;;;;;;;21.32;60.39;100667.53;5069796;28;20036;-68
2023/07/25 09:43:06;;;;;;;4.95;1.20;;;;;;;21.56;50.69;100680.28;5070453;28;20035;-69
2023/07/25 09:45:36;;;;;;;4.35;1.05;;;;;;;21.56;51.73;100677.50;5070359;28;20131;-68
2023/07/25 09:48:02;;;;;;;4.07;1.08;;;;;;;21.92;55.93;100672.16;5069793;28;20475;-68
2023/07/25 09:50:33;;;;;;;3.28;0.95;;;;;;;22.28;54.89;100672.25;5064721;28;20108;-69
2023/07/25 09:53:01;;;;;;;3.65;0.95;;;;;;;22.02;54.00;100675.50;5049977;28;20033;-69
2023/07/25 09:55:26;;;;;;;4.18;1.20;;;;;;;21.60;56.21;100676.09;5058304;28;20030;-69
2023/07/25 09:57:52;;;;;;;8.13;1.10;;;;;;;21.34;55.43;100669.03;5070514;28;20040;-68
2023/07/25 10:00:18;;;;;;;4.10;1.10;;;;;;;21.24;57.33;100679.47;5069529;28;20071;-69
2023/07/25 10:02:44;;;;;;;4.30;0.93;;;;;;;21.11;56.34;100674.53;5069814;28;20056;-70
2023/07/25 10:05:09;;;;;;;2.88;0.93;;;;;;;21.15;57.45;100673.13;5069439;28;20523;-69
2023/07/25 10:07:36;;;;;;;4.28;1.00;;;;;;;21.08;58.43;100669.41;5069686;28;20059;-69
2023/07/25 10:10:03;;;;;;;5.50;1.08;;;;;;;20.78;57.34;100675.81;5069670;28;20041;-68
2023/07/25 10:12:29;;;;;;;6.70;1.50;;;;;;;20.62;56.67;100679.53;5070686;28;20024;-69
2023/07/25 10:14:56;;;;;;;4.57;1.10;;;;;;;20.67;52.09;100679.00;5051965;28;20063;-68
2023/07/25 10:17:24;;;;;;;5.05;1.42;;;;;;;20.51;53.22;100674.38;5070052;28;20040;-68
2023/07/25 10:19:51;;;;;;;5.55;1.20;;;;;;;20.83;53.49;100676.97;5068875;28;20479;-68
2023/07/25 10:22:34;;;;;;;5.43;1.67;;;;;;;21.24;56.99;100675.84;5069534;28;20082;-69
2023/07/25 10:25:00;;;;;;;3.58;1.30;;;;;;;21.65;53.57;100663.41;5070045;28;20097;-68
2023/07/25 10:27:26;;;;;;;4.15;1.20;;;;;;;21.74;49.47;100664.19;5048157;28;20025;-69
2023/07/25 10:29:51;;;;;;;3.55;1.15;;;;;;;21.84;51.55;100661.16;5057014;28;20028;-68
2023/07/25 10:32:22;;;;;;;2.72;1.10;;;;;;;22.02;56.18;100660.78;5069362;28;20051;-69
2023/07/25 10:34:59;;;;;;;2.40;1.00;;;;;;;22.07;53.62;100659.16;5068575;28;20092;-69
2023/07/25 10:37:30;;;;;;;5.55;1.17;;;;;;;22.32;56.53;100669.97;5069148;28;20089;-71
2023/07/25 10:40:03;;;;;;;3.15;1.33;;;;;;;22.00;49.84;100669.25;5069307;28;20036;-68
2023/07/25 10:42:42;;;;;;;3.15;0.98;;;;;;;21.41;53.88;100676.63;5069994;28;20082;-69
2023/07/25 10:45:41;;;;;;;5.00;1.10;;;;;;;21.72;55.45;100671.81;5069151;28;20094;-69
2023/07/25 10:48:28;;;;;;;4.05;1.02;;;;;;;22.18;53.00;100662.53;5068869;28;20044;-69
2023/07/25 10:50:54;;;;;;;2.38;1.10;;;;;;;22.64;51.23;100666.78;5068656;28;20078;-70
2023/07/25 10:53:21;;;;;;;4.25;1.42;;;;;;;23.39;52.95;100664.63;5069258;28;20128;-69
2023/07/25 10:56:10;;;;;;;6.50;1.40;;;;;;;23.95;53.52;100672.16;5068819;28;20045;-68
2023/07/25 10:59:11;;;;;;;3.25;1.13;;;;;;;23.75;50.33;100681.22;5063247;28;20109;-69
2023/07/25 11:01:47;;;;;;;3.88;1.00;;;;;;;23.25;48.32;100666.41;5048775;28;20044;-68
2023/07/25 11:04:31;;;;;;;2.67;1.02;;;;;;;22.59;51.33;100663.72;5049371;28;20047;-69
2023/07/25 11:07:07;;;;;;;4.25;1.10;;;;;;;21.96;49.93;100667.06;5068378;28;20045;-69
2023/07/25 11:09:33;;;;;;;2.67;0.90;;;;;;;21.67;50.30;100665.97;5069129;28;20475;-69
2023/07/25 11:11:58;;;;;;;3.15;0.90;;;;;;;21.51;50.64;100667.00;5069198;28;20035;-69
2023/07/25 11:14:24;;;;;;;3.10;1.00;;;;;;;21.29;49.26;100665.94;5067791;28;20464;-69
2023/07/25 11:16:51;;;;;;;5.72;1.10;;;;;;;21.20;54.86;100664.28;5068902;28;20051;-68
2023/07/25 11:19:16;;;;;;;3.90;0.90;;;;;;;21.18;53.33;100665.53;5069041;28;20160;-70
2023/07/25 11:21:44;;;;;;;5.65;1.02;;;;;;;21.66;55.62;100661.50;5067467;28;20599;-69